sensor_id;sensor_type;location;lat;lon;timestamp;P1;durP1;ratioP1;P2;durP2;ratioP2
35326;SDS011;21436;52.348;20.928;2023-04-20T00:01:31;20.65;;;12.15;;
35326;SDS011;21436;52.348;20.928;2023-04-20T00:03:58;20.05;;;11.43;;
35326;SDS011;21436;52.348;20.928;2023-04-20T00:06:26;18.67;;;11.73;;
35326;SDS011;21436;52.348;20.928;2023-04-20T00:08:57;19.83;;;11.35;;
35326;SDS011;21436;52.348;20.928;2023-04-20T00:11:24;18.52;;;11.50;;
35326;SDS011;21436;52.348;20.928;2023-04-20T00:13:52;20.48;;;12.10;;
35326;SDS011;21436;52.348;20.928;2023-04-20T00:16:20;20.95;;;12.35;;
35326;SDS011;21436;52.348;20.928;2023-04-20T00:18:47;19.55;;;12.30;;
35326;SDS011;21436;52.348;20.928;2023-04-20T00:21:15;20.50;;;12.10;;
35326;SDS011;21436;52.348;20.928;2023-04-20T00:23:42;17.45;;;11.38;;
35326;SDS011;21436;52.348;20.928;2023-04-20T00:26:10;21.73;;;12.63;;
35326;SDS011;21436;52.348;20.928;2023-04-20T00:28:39;17.95;;;11.35;;
35326;SDS011;21436;52.348;20.928;2023-04-20T00:31:07;19.25;;;11.55;;
35326;SDS011;21436;52.348;20.928;2023-04-20T00:33:35;23.95;;;12.90;;
35326;SDS011;21436;52.348;20.928;2023-04-20T00:36:02;23.92;;;12.95;;
35326;SDS011;21436;52.348;20.928;2023-04-20T00:38:30;25.10;;;14.85;;
35326;SDS011;21436;52.348;20.928;2023-04-20T00:40:58;24.65;;;12.55;;
35326;SDS011;21436;52.348;20.928;2023-04-20T00:43:26;24.52;;;13.82;;
35326;SDS011;21436;52.348;20.928;2023-04-20T00:45:53;25.95;;;13.50;;
35326;SDS011;21436;52.348;20.928;2023-04-20T00:48:21;29.63;;;15.77;;
35326;SDS011;21436;52.348;20.928;2023-04-20T00:50:49;25.95;;;14.40;;
35326;SDS011;21436;52.348;20.928;2023-04-20T00:53:17;27.48;;;14.95;;
35326;SDS011;21436;52.348;20.928;2023-04-20T00:55:45;21.70;;;13.75;;
35326;SDS011;21436;52.348;20.928;2023-04-20T00:58:12;21.77;;;13.27;;
35326;SDS011;21436;52.348;20.928;2023-04-20T01:00:40;25.13;;;14.15;;
35326;SDS011;21436;52.348;20.928;2023-04-20T01:03:09;23.10;;;12.95;;
35326;SDS011;21436;52.348;20.928;2023-04-20T01:05:36;26.40;;;13.88;;
35326;SDS011;21436;52.348;20.928;2023-04-20T01:08:04;21.35;;;13.07;;
35326;SDS011;21436;52.348;20.928;2023-04-20T01:10:31;23.83;;;13.43;;
35326;SDS011;21436;52.348;20.928;2023-04-20T01:12:59;24.63;;;12.43;;
35326;SDS011;21436;52.348;20.928;2023-04-20T01:15:26;25.10;;;12.98;;
35326;SDS011;21436;52.348;20.928;2023-04-20T01:17:53;25.83;;;13.13;;
35326;SDS011;21436;52.348;20.928;2023-04-20T01:20:24;21.08;;;13.60;;
35326;SDS011;21436;52.348;20.928;2023-04-20T01:23:03;22.75;;;12.90;;
35326;SDS011;21436;52.348;20.928;2023-04-20T01:25:31;20.73;;;12.50;;
35326;SDS011;21436;52.348;20.928;2023-04-20T01:27:59;23.48;;;13.70;;
35326;SDS011;21436;52.348;20.928;2023-04-20T01:30:28;23.20;;;12.68;;
35326;SDS011;21436;52.348;20.928;2023-04-20T01:32:55;25.17;;;12.13;;
35326;SDS011;21436;52.348;20.928;2023-04-20T01:35:23;22.42;;;12.57;;
35326;SDS011;21436;52.348;20.928;2023-04-20T01:37:50;20.83;;;12.60;;
35326;SDS011;21436;52.348;20.928;2023-04-20T01:40:17;21.70;;;12.00;;
35326;SDS011;21436;52.348;20.928;2023-04-20T01:42:45;19.45;;;12.60;;
35326;SDS011;21436;52.348;20.928;2023-04-20T01:45:13;20.85;;;12.40;;
35326;SDS011;21436;52.348;20.928;2023-04-20T01:47:41;17.88;;;11.65;;
35326;SDS011;21436;52.348;20.928;2023-04-20T01:50:08;24.83;;;12.55;;
35326;SDS011;21436;52.348;20.928;2023-04-20T01:52:36;20.50;;;11.57;;
35326;SDS011;21436;52.348;20.928;2023-04-20T01:55:03;24.88;;;13.40;;
35326;SDS011;21436;52.348;20.928;2023-04-20T01:57:31;19.83;;;11.65;;
35326;SDS011;21436;52.348;20.928;2023-04-20T01:59:58;20.65;;;12.48;;
35326;SDS011;21436;52.348;20.928;2023-04-20T02:02:26;18.65;;;11.65;;
35326;SDS011;21436;52.348;20.928;2023-04-20T02:04:53;23.40;;;14.43;;
35326;SDS011;21436;52.348;20.928;2023-04-20T02:07:21;20.17;;;13.73;;
35326;SDS011;21436;52.348;20.928;2023-04-20T02:09:48;21.83;;;13.50;;
35326;SDS011;21436;52.348;20.928;2023-04-20T02:12:16;19.73;;;12.68;;
35326;SDS011;21436;52.348;20.928;2023-04-20T02:14:43;19.17;;;12.55;;
35326;SDS011;21436;52.348;20.928;2023-04-20T02:17:11;23.80;;;12.75;;
35326;SDS011;21436;52.348;20.928;2023-04-20T02:19:38;23.55;;;12.43;;
35326;SDS011;21436;52.348;20.928;2023-04-20T02:22:06;22.80;;;12.55;;
35326;SDS011;21436;52.348;20.928;2023-04-20T02:24:34;22.30;;;12.45;;
35326;SDS011;21436;52.348;20.928;2023-04-20T02:27:02;19.38;;;12.38;;
35326;SDS011;21436;52.348;20.928;2023-04-20T02:29:30;19.98;;;12.18;;
35326;SDS011;21436;52.348;20.928;2023-04-20T02:31:58;21.95;;;13.88;;
35326;SDS011;21436;52.348;20.928;2023-04-20T02:34:26;19.95;;;12.25;;
35326;SDS011;21436;52.348;20.928;2023-04-20T02:36:56;21.55;;;12.13;;
35326;SDS011;21436;52.348;20.928;2023-04-20T02:39:23;19.95;;;11.80;;
35326;SDS011;21436;52.348;20.928;2023-04-20T02:41:53;22.38;;;12.65;;
35326;SDS011;21436;52.348;20.928;2023-04-20T02:44:20;20.75;;;12.25;;
35326;SDS011;21436;52.348;20.928;2023-04-20T02:46:49;22.23;;;12.50;;
35326;SDS011;21436;52.348;20.928;2023-04-20T02:49:17;21.25;;;12.77;;
35326;SDS011;21436;52.348;20.928;2023-04-20T02:51:45;27.63;;;13.98;;
35326;SDS011;21436;52.348;20.928;2023-04-20T02:54:12;24.88;;;13.75;;
35326;SDS011;21436;52.348;20.928;2023-04-20T02:56:41;20.83;;;13.15;;
35326;SDS011;21436;52.348;20.928;2023-04-20T02:59:09;29.73;;;16.77;;
35326;SDS011;21436;52.348;20.928;2023-04-20T03:02:03;25.75;;;14.90;;
35326;SDS011;21436;52.348;20.928;2023-04-20T03:04:31;28.83;;;17.88;;
35326;SDS011;21436;52.348;20.928;2023-04-20T03:07:06;24.38;;;16.30;;
35326;SDS011;21436;52.348;20.928;2023-04-20T03:09:35;27.95;;;16.30;;
35326;SDS011;21436;52.348;20.928;2023-04-20T03:12:20;29.50;;;15.13;;
35326;SDS011;21436;52.348;20.928;2023-04-20T03:14:53;27.88;;;15.13;;
35326;SDS011;21436;52.348;20.928;2023-04-20T03:17:30;24.75;;;14.93;;
35326;SDS011;21436;52.348;20.928;2023-04-20T03:19:58;24.55;;;15.70;;
35326;SDS011;21436;52.348;20.928;2023-04-20T03:22:26;25.75;;;15.30;;
35326;SDS011;21436;52.348;20.928;2023-04-20T03:24:57;27.73;;;14.50;;
35326;SDS011;21436;52.348;20.928;2023-04-20T03:27:44;23.67;;;15.38;;
35326;SDS011;21436;52.348;20.928;2023-04-20T03:30:13;24.85;;;15.60;;
35326;SDS011;21436;52.348;20.928;2023-04-20T03:32:42;28.95;;;16.80;;
35326;SDS011;21436;52.348;20.928;2023-04-20T03:35:11;25.63;;;17.08;;
35326;SDS011;21436;52.348;20.928;2023-04-20T03:37:39;25.73;;;16.50;;
35326;SDS011;21436;52.348;20.928;2023-04-20T03:40:07;26.05;;;16.25;;
35326;SDS011;21436;52.348;20.928;2023-04-20T03:42:35;24.17;;;16.15;;
35326;SDS011;21436;52.348;20.928;2023-04-20T03:45:06;33.70;;;16.58;;
35326;SDS011;21436;52.348;20.928;2023-04-20T03:47:33;27.92;;;15.65;;
35326;SDS011;21436;52.348;20.928;2023-04-20T03:50:01;25.02;;;14.50;;
35326;SDS011;21436;52.348;20.928;2023-04-20T03:52:29;25.95;;;14.27;;
35326;SDS011;21436;52.348;20.928;2023-04-20T03:54:58;25.00;;;15.45;;
35326;SDS011;21436;52.348;20.928;2023-04-20T03:57:27;25.88;;;15.35;;
35326;SDS011;21436;52.348;20.928;2023-04-20T03:59:54;28.85;;;15.73;;
35326;SDS011;21436;52.348;20.928;2023-04-20T04:02:25;25.67;;;15.82;;
35326;SDS011;21436;52.348;20.928;2023-04-20T04:04:54;24.75;;;15.48;;
35326;SDS011;21436;52.348;20.928;2023-04-20T04:07:22;25.38;;;15.77;;
35326;SDS011;21436;52.348;20.928;2023-04-20T04:09:49;24.77;;;16.10;;
35326;SDS011;21436;52.348;20.928;2023-04-20T04:12:17;26.42;;;15.77;;
35326;SDS011;21436;52.348;20.928;2023-04-20T04:14:47;45.60;;;27.63;;
35326;SDS011;21436;52.348;20.928;2023-04-20T04:17:17;28.20;;;18.95;;
35326;SDS011;21436;52.348;20.928;2023-04-20T04:19:44;32.92;;;20.67;;
35326;SDS011;21436;52.348;20.928;2023-04-20T04:22:12;66.95;;;40.90;;
35326;SDS011;21436;52.348;20.928;2023-04-20T04:24:53;71.97;;;45.08;;
35326;SDS011;21436;52.348;20.928;2023-04-20T04:27:21;65.03;;;39.17;;
35326;SDS011;21436;52.348;20.928;2023-04-20T04:29:54;36.17;;;23.17;;
35326;SDS011;21436;52.348;20.928;2023-04-20T04:34:54;35.60;;;21.88;;
35326;SDS011;21436;52.348;20.928;2023-04-20T04:37:25;28.05;;;17.88;;
35326;SDS011;21436;52.348;20.928;2023-04-20T04:39:55;26.70;;;17.73;;
35326;SDS011;21436;52.348;20.928;2023-04-20T04:42:32;28.77;;;17.13;;
35326;SDS011;21436;52.348;20.928;2023-04-20T04:45:03;29.27;;;18.05;;
35326;SDS011;21436;52.348;20.928;2023-04-20T04:47:34;27.90;;;17.63;;
35326;SDS011;21436;52.348;20.928;2023-04-20T04:50:02;26.25;;;16.90;;
35326;SDS011;21436;52.348;20.928;2023-04-20T04:52:34;28.73;;;16.65;;
35326;SDS011;21436;52.348;20.928;2023-04-20T04:55:01;31.40;;;18.92;;
35326;SDS011;21436;52.348;20.928;2023-04-20T04:57:30;25.80;;;16.48;;
35326;SDS011;21436;52.348;20.928;2023-04-20T04:59:57;59.97;;;33.22;;
35326;SDS011;21436;52.348;20.928;2023-04-20T05:02:24;21.42;;;13.20;;
35326;SDS011;21436;52.348;20.928;2023-04-20T05:04:52;22.75;;;13.05;;
35326;SDS011;21436;52.348;20.928;2023-04-20T05:07:20;16.90;;;11.77;;
35326;SDS011;21436;52.348;20.928;2023-04-20T05:09:47;20.40;;;12.82;;
35326;SDS011;21436;52.348;20.928;2023-04-20T05:12:15;20.35;;;12.50;;
35326;SDS011;21436;52.348;20.928;2023-04-20T05:14:42;24.80;;;14.95;;
35326;SDS011;21436;52.348;20.928;2023-04-20T05:17:10;19.98;;;12.15;;
35326;SDS011;21436;52.348;20.928;2023-04-20T05:19:37;20.58;;;11.30;;
35326;SDS011;21436;52.348;20.928;2023-04-20T05:22:04;17.45;;;11.48;;
35326;SDS011;21436;52.348;20.928;2023-04-20T05:24:31;22.67;;;12.23;;
35326;SDS011;21436;52.348;20.928;2023-04-20T05:27:00;21.17;;;11.75;;
35326;SDS011;21436;52.348;20.928;2023-04-20T05:29:27;20.15;;;11.23;;
35326;SDS011;21436;52.348;20.928;2023-04-20T05:31:55;19.30;;;11.60;;
35326;SDS011;21436;52.348;20.928;2023-04-20T05:34:22;16.88;;;10.50;;
35326;SDS011;21436;52.348;20.928;2023-04-20T05:36:50;19.17;;;10.73;;
35326;SDS011;21436;52.348;20.928;2023-04-20T05:39:18;18.85;;;11.20;;
35326;SDS011;21436;52.348;20.928;2023-04-20T05:41:47;18.20;;;10.73;;
35326;SDS011;21436;52.348;20.928;2023-04-20T05:44:14;19.25;;;10.27;;
35326;SDS011;21436;52.348;20.928;2023-04-20T05:46:42;18.73;;;10.65;;
35326;SDS011;21436;52.348;20.928;2023-04-20T05:49:09;16.80;;;10.40;;
35326;SDS011;21436;52.348;20.928;2023-04-20T05:51:37;15.77;;;9.55;;
35326;SDS011;21436;52.348;20.928;2023-04-20T05:54:04;21.17;;;10.18;;
35326;SDS011;21436;52.348;20.928;2023-04-20T05:56:32;17.02;;;9.73;;
35326;SDS011;21436;52.348;20.928;2023-04-20T05:58:59;17.15;;;9.70;;
35326;SDS011;21436;52.348;20.928;2023-04-20T06:01:27;20.67;;;10.90;;
35326;SDS011;21436;52.348;20.928;2023-04-20T06:03:54;20.73;;;9.27;;
35326;SDS011;21436;52.348;20.928;2023-04-20T06:06:23;16.38;;;10.10;;
35326;SDS011;21436;52.348;20.928;2023-04-20T06:08:51;20.20;;;8.60;;
35326;SDS011;21436;52.348;20.928;2023-04-20T06:11:25;16.85;;;9.20;;
35326;SDS011;21436;52.348;20.928;2023-04-20T06:13:52;19.80;;;8.73;;
35326;SDS011;21436;52.348;20.928;2023-04-20T06:16:20;13.18;;;8.73;;
35326;SDS011;21436;52.348;20.928;2023-04-20T06:18:48;19.95;;;9.27;;
35326;SDS011;21436;52.348;20.928;2023-04-20T06:21:16;16.10;;;9.32;;
35326;SDS011;21436;52.348;20.928;2023-04-20T06:23:43;15.48;;;8.75;;
35326;SDS011;21436;52.348;20.928;2023-04-20T06:26:11;14.50;;;9.73;;
35326;SDS011;21436;52.348;20.928;2023-04-20T06:28:39;18.80;;;8.85;;
35326;SDS011;21436;52.348;20.928;2023-04-20T06:31:06;14.05;;;9.75;;
35326;SDS011;21436;52.348;20.928;2023-04-20T06:33:34;15.88;;;8.82;;
35326;SDS011;21436;52.348;20.928;2023-04-20T06:36:04;19.00;;;9.27;;
35326;SDS011;21436;52.348;20.928;2023-04-20T06:38:32;15.10;;;8.27;;
35326;SDS011;21436;52.348;20.928;2023-04-20T06:41:00;17.35;;;9.13;;
35326;SDS011;21436;52.348;20.928;2023-04-20T06:43:29;15.95;;;7.80;;
35326;SDS011;21436;52.348;20.928;2023-04-20T06:45:56;12.48;;;8.15;;
35326;SDS011;21436;52.348;20.928;2023-04-20T06:48:24;15.45;;;8.48;;
35326;SDS011;21436;52.348;20.928;2023-04-20T06:50:59;10.68;;;7.38;;
35326;SDS011;21436;52.348;20.928;2023-04-20T06:53:27;16.30;;;7.97;;
35326;SDS011;21436;52.348;20.928;2023-04-20T06:55:54;22.38;;;9.07;;
35326;SDS011;21436;52.348;20.928;2023-04-20T06:58:22;17.77;;;8.10;;
35326;SDS011;21436;52.348;20.928;2023-04-20T07:00:50;19.63;;;7.65;;
35326;SDS011;21436;52.348;20.928;2023-04-20T07:03:18;12.02;;;7.28;;
35326;SDS011;21436;52.348;20.928;2023-04-20T07:05:46;19.73;;;7.65;;
35326;SDS011;21436;52.348;20.928;2023-04-20T07:08:13;18.05;;;7.43;;
35326;SDS011;21436;52.348;20.928;2023-04-20T07:10:42;18.75;;;7.63;;
35326;SDS011;21436;52.348;20.928;2023-04-20T07:13:09;15.32;;;7.38;;
35326;SDS011;21436;52.348;20.928;2023-04-20T07:15:37;12.38;;;7.60;;
35326;SDS011;21436;52.348;20.928;2023-04-20T07:18:04;17.20;;;6.68;;
35326;SDS011;21436;52.348;20.928;2023-04-20T07:20:32;11.40;;;6.53;;
35326;SDS011;21436;52.348;20.928;2023-04-20T07:23:00;15.50;;;7.43;;
35326;SDS011;21436;52.348;20.928;2023-04-20T07:25:27;17.85;;;8.35;;
35326;SDS011;21436;52.348;20.928;2023-04-20T07:27:57;16.42;;;7.90;;
35326;SDS011;21436;52.348;20.928;2023-04-20T07:30:25;14.50;;;7.05;;
35326;SDS011;21436;52.348;20.928;2023-04-20T07:32:52;16.90;;;7.43;;
35326;SDS011;21436;52.348;20.928;2023-04-20T07:35:20;12.23;;;6.38;;
35326;SDS011;21436;52.348;20.928;2023-04-20T07:37:47;12.60;;;6.20;;
35326;SDS011;21436;52.348;20.928;2023-04-20T07:40:15;11.32;;;5.85;;
35326;SDS011;21436;52.348;20.928;2023-04-20T07:42:42;12.18;;;6.18;;
35326;SDS011;21436;52.348;20.928;2023-04-20T07:45:11;17.10;;;6.47;;
35326;SDS011;21436;52.348;20.928;2023-04-20T07:47:38;14.48;;;6.53;;
35326;SDS011;21436;52.348;20.928;2023-04-20T07:50:07;16.95;;;5.60;;
35326;SDS011;21436;52.348;20.928;2023-04-20T07:52:34;17.70;;;5.97;;
35326;SDS011;21436;52.348;20.928;2023-04-20T07:55:02;9.18;;;4.93;;
35326;SDS011;21436;52.348;20.928;2023-04-20T07:57:29;14.65;;;5.90;;
35326;SDS011;21436;52.348;20.928;2023-04-20T07:59:57;23.27;;;6.40;;
35326;SDS011;21436;52.348;20.928;2023-04-20T08:02:24;17.52;;;5.35;;
35326;SDS011;21436;52.348;20.928;2023-04-20T08:04:53;13.18;;;4.60;;
35326;SDS011;21436;52.348;20.928;2023-04-20T08:07:21;14.40;;;5.72;;
35326;SDS011;21436;52.348;20.928;2023-04-20T08:09:49;9.93;;;5.30;;
35326;SDS011;21436;52.348;20.928;2023-04-20T08:12:17;18.65;;;5.65;;
35326;SDS011;21436;52.348;20.928;2023-04-20T08:14:45;17.02;;;6.20;;
35326;SDS011;21436;52.348;20.928;2023-04-20T08:17:12;14.75;;;6.25;;
35326;SDS011;21436;52.348;20.928;2023-04-20T08:19:40;8.95;;;5.18;;
35326;SDS011;21436;52.348;20.928;2023-04-20T08:22:11;12.38;;;5.28;;
35326;SDS011;21436;52.348;20.928;2023-04-20T08:24:39;10.82;;;5.10;;
35326;SDS011;21436;52.348;20.928;2023-04-20T08:27:07;10.13;;;4.57;;
35326;SDS011;21436;52.348;20.928;2023-04-20T08:29:35;9.35;;;5.72;;
35326;SDS011;21436;52.348;20.928;2023-04-20T08:32:04;13.85;;;4.95;;
35326;SDS011;21436;52.348;20.928;2023-04-20T08:34:35;16.52;;;4.63;;
35326;SDS011;21436;52.348;20.928;2023-04-20T08:37:03;13.45;;;4.63;;
35326;SDS011;21436;52.348;20.928;2023-04-20T08:39:30;10.93;;;5.22;;
35326;SDS011;21436;52.348;20.928;2023-04-20T08:41:58;9.77;;;4.20;;
35326;SDS011;21436;52.348;20.928;2023-04-20T08:44:25;17.70;;;4.03;;
35326;SDS011;21436;52.348;20.928;2023-04-20T08:46:53;19.27;;;4.18;;
35326;SDS011;21436;52.348;20.928;2023-04-20T08:49:21;7.93;;;3.85;;
35326;SDS011;21436;52.348;20.928;2023-04-20T08:51:48;11.88;;;3.97;;
35326;SDS011;21436;52.348;20.928;2023-04-20T08:54:18;11.43;;;3.90;;
35326;SDS011;21436;52.348;20.928;2023-04-20T08:56:47;14.25;;;4.00;;
35326;SDS011;21436;52.348;20.928;2023-04-20T08:59:15;11.18;;;4.15;;
35326;SDS011;21436;52.348;20.928;2023-04-20T09:01:43;6.72;;;2.80;;
35326;SDS011;21436;52.348;20.928;2023-04-20T09:04:18;12.13;;;3.75;;
35326;SDS011;21436;52.348;20.928;2023-04-20T09:06:48;14.32;;;3.72;;
35326;SDS011;21436;52.348;20.928;2023-04-20T09:09:17;12.23;;;3.33;;
35326;SDS011;21436;52.348;20.928;2023-04-20T09:11:58;15.70;;;3.60;;
35326;SDS011;21436;52.348;20.928;2023-04-20T09:14:40;13.90;;;4.25;;
35326;SDS011;21436;52.348;20.928;2023-04-20T09:17:08;10.93;;;4.10;;
35326;SDS011;21436;52.348;20.928;2023-04-20T09:19:42;12.77;;;4.78;;
35326;SDS011;21436;52.348;20.928;2023-04-20T09:22:10;7.05;;;2.85;;
35326;SDS011;21436;52.348;20.928;2023-04-20T09:24:38;18.60;;;4.13;;
35326;SDS011;21436;52.348;20.928;2023-04-20T09:27:17;7.90;;;3.92;;
35326;SDS011;21436;52.348;20.928;2023-04-20T09:29:58;14.98;;;3.63;;
35326;SDS011;21436;52.348;20.928;2023-04-20T09:32:27;12.13;;;4.10;;
35326;SDS011;21436;52.348;20.928;2023-04-20T09:34:55;16.25;;;4.18;;
35326;SDS011;21436;52.348;20.928;2023-04-20T09:37:23;11.48;;;3.28;;
35326;SDS011;21436;52.348;20.928;2023-04-20T09:39:52;7.95;;;2.72;;
35326;SDS011;21436;52.348;20.928;2023-04-20T09:42:21;11.32;;;3.58;;
35326;SDS011;21436;52.348;20.928;2023-04-20T09:44:51;14.05;;;3.08;;
35326;SDS011;21436;52.348;20.928;2023-04-20T09:47:19;9.40;;;3.15;;
35326;SDS011;21436;52.348;20.928;2023-04-20T09:49:48;5.50;;;1.90;;
35326;SDS011;21436;52.348;20.928;2023-04-20T09:52:16;8.48;;;3.47;;
35326;SDS011;21436;52.348;20.928;2023-04-20T09:54:47;15.65;;;3.33;;
35326;SDS011;21436;52.348;20.928;2023-04-20T09:57:16;7.93;;;2.72;;
35326;SDS011;21436;52.348;20.928;2023-04-20T09:59:45;13.35;;;3.17;;
35326;SDS011;21436;52.348;20.928;2023-04-20T10:02:13;10.85;;;3.17;;
35326;SDS011;21436;52.348;20.928;2023-04-20T10:07:28;8.98;;;2.88;;
35326;SDS011;21436;52.348;20.928;2023-04-20T10:10:41;6.53;;;2.58;;
35326;SDS011;21436;52.348;20.928;2023-04-20T10:12:52;5.85;;;2.40;;
35326;SDS011;21436;52.348;20.928;2023-04-20T10:15:21;6.40;;;3.25;;
35326;SDS011;21436;52.348;20.928;2023-04-20T10:17:50;12.73;;;3.33;;
35326;SDS011;21436;52.348;20.928;2023-04-20T10:20:21;5.25;;;2.42;;
35326;SDS011;21436;52.348;20.928;2023-04-20T10:22:51;7.30;;;2.85;;
35326;SDS011;21436;52.348;20.928;2023-04-20T10:25:21;15.05;;;3.00;;
35326;SDS011;21436;52.348;20.928;2023-04-20T10:27:57;13.27;;;3.47;;
35326;SDS011;21436;52.348;20.928;2023-04-20T10:30:26;8.05;;;2.80;;
35326;SDS011;21436;52.348;20.928;2023-04-20T10:33:08;6.60;;;2.63;;
35326;SDS011;21436;52.348;20.928;2023-04-20T10:38:30;6.10;;;2.70;;
35326;SDS011;21436;52.348;20.928;2023-04-20T10:41:08;8.85;;;2.97;;
35326;SDS011;21436;52.348;20.928;2023-04-20T10:43:36;8.30;;;3.03;;
35326;SDS011;21436;52.348;20.928;2023-04-20T10:46:16;7.75;;;3.05;;
35326;SDS011;21436;52.348;20.928;2023-04-20T10:48:57;7.32;;;2.55;;
35326;SDS011;21436;52.348;20.928;2023-04-20T10:54:02;13.38;;;3.15;;
35326;SDS011;21436;52.348;20.928;2023-04-20T10:56:36;11.55;;;3.20;;
35326;SDS011;21436;52.348;20.928;2023-04-20T10:59:05;20.00;;;3.17;;
35326;SDS011;21436;52.348;20.928;2023-04-20T11:01:34;7.95;;;2.50;;
35326;SDS011;21436;52.348;20.928;2023-04-20T11:04:02;4.47;;;2.53;;
35326;SDS011;21436;52.348;20.928;2023-04-20T11:06:30;8.35;;;2.88;;
35326;SDS011;21436;52.348;20.928;2023-04-20T11:08:58;14.88;;;3.13;;
35326;SDS011;21436;52.348;20.928;2023-04-20T11:11:26;11.18;;;4.15;;
35326;SDS011;21436;52.348;20.928;2023-04-20T11:14:07;6.85;;;2.83;;
35326;SDS011;21436;52.348;20.928;2023-04-20T11:16:36;8.52;;;2.90;;
35326;SDS011;21436;52.348;20.928;2023-04-20T11:19:21;5.03;;;2.70;;
35326;SDS011;21436;52.348;20.928;2023-04-20T11:21:50;8.10;;;3.03;;
35326;SDS011;21436;52.348;20.928;2023-04-20T11:24:18;7.63;;;3.00;;
35326;SDS011;21436;52.348;20.928;2023-04-20T11:26:47;9.10;;;3.20;;
35326;SDS011;21436;52.348;20.928;2023-04-20T11:29:27;8.90;;;3.08;;
35326;SDS011;21436;52.348;20.928;2023-04-20T11:32:01;4.93;;;2.80;;
35326;SDS011;21436;52.348;20.928;2023-04-20T11:34:31;8.50;;;3.03;;
35326;SDS011;21436;52.348;20.928;2023-04-20T11:37:03;10.98;;;3.55;;
35326;SDS011;21436;52.348;20.928;2023-04-20T11:39:32;20.65;;;3.17;;
35326;SDS011;21436;52.348;20.928;2023-04-20T11:42:01;10.45;;;3.10;;
35326;SDS011;21436;52.348;20.928;2023-04-20T11:44:28;5.30;;;2.47;;
35326;SDS011;21436;52.348;20.928;2023-04-20T11:46:56;3.97;;;2.83;;
35326;SDS011;21436;52.348;20.928;2023-04-20T11:49:26;9.98;;;3.33;;
35326;SDS011;21436;52.348;20.928;2023-04-20T11:51:55;7.13;;;2.63;;
35326;SDS011;21436;52.348;20.928;2023-04-20T11:54:22;9.25;;;2.78;;
35326;SDS011;21436;52.348;20.928;2023-04-20T11:56:50;7.15;;;3.20;;
35326;SDS011;21436;52.348;20.928;2023-04-20T11:59:18;6.32;;;3.17;;
35326;SDS011;21436;52.348;20.928;2023-04-20T12:01:47;10.93;;;3.20;;
35326;SDS011;21436;52.348;20.928;2023-04-20T12:04:14;5.18;;;3.00;;
35326;SDS011;21436;52.348;20.928;2023-04-20T12:06:43;5.90;;;3.40;;
35326;SDS011;21436;52.348;20.928;2023-04-20T12:09:10;6.82;;;2.95;;
35326;SDS011;21436;52.348;20.928;2023-04-20T12:11:39;7.97;;;3.17;;
35326;SDS011;21436;52.348;20.928;2023-04-20T12:14:07;5.88;;;2.95;;
35326;SDS011;21436;52.348;20.928;2023-04-20T12:16:34;6.85;;;3.65;;
35326;SDS011;21436;52.348;20.928;2023-04-20T12:19:02;6.32;;;3.50;;
35326;SDS011;21436;52.348;20.928;2023-04-20T12:21:29;8.75;;;3.55;;
35326;SDS011;21436;52.348;20.928;2023-04-20T12:23:58;4.85;;;3.33;;
35326;SDS011;21436;52.348;20.928;2023-04-20T12:26:26;7.07;;;3.38;;
35326;SDS011;21436;52.348;20.928;2023-04-20T12:29:04;6.88;;;3.22;;
35326;SDS011;21436;52.348;20.928;2023-04-20T12:31:31;4.60;;;2.90;;
35326;SDS011;21436;52.348;20.928;2023-04-20T12:33:59;6.88;;;3.55;;
35326;SDS011;21436;52.348;20.928;2023-04-20T12:36:27;8.75;;;3.60;;
35326;SDS011;21436;52.348;20.928;2023-04-20T12:38:54;5.70;;;3.13;;
35326;SDS011;21436;52.348;20.928;2023-04-20T12:41:22;8.63;;;3.28;;
35326;SDS011;21436;52.348;20.928;2023-04-20T12:43:50;10.02;;;3.33;;
35326;SDS011;21436;52.348;20.928;2023-04-20T12:46:18;9.40;;;3.85;;
35326;SDS011;21436;52.348;20.928;2023-04-20T12:48:46;10.60;;;3.30;;
35326;SDS011;21436;52.348;20.928;2023-04-20T12:51:14;11.35;;;3.22;;
35326;SDS011;21436;52.348;20.928;2023-04-20T12:53:41;8.48;;;3.58;;
35326;SDS011;21436;52.348;20.928;2023-04-20T12:56:09;8.68;;;3.58;;
35326;SDS011;21436;52.348;20.928;2023-04-20T12:58:37;6.43;;;4.47;;
35326;SDS011;21436;52.348;20.928;2023-04-20T13:01:05;7.32;;;3.50;;
35326;SDS011;21436;52.348;20.928;2023-04-20T13:03:32;8.35;;;3.90;;
35326;SDS011;21436;52.348;20.928;2023-04-20T13:06:00;13.50;;;4.03;;
35326;SDS011;21436;52.348;20.928;2023-04-20T13:08:28;5.82;;;3.53;;
35326;SDS011;21436;52.348;20.928;2023-04-20T13:10:56;6.57;;;3.45;;
35326;SDS011;21436;52.348;20.928;2023-04-20T13:13:23;7.47;;;3.40;;
35326;SDS011;21436;52.348;20.928;2023-04-20T13:15:52;7.47;;;3.15;;
35326;SDS011;21436;52.348;20.928;2023-04-20T13:18:20;12.23;;;3.47;;
35326;SDS011;21436;52.348;20.928;2023-04-20T13:20:50;11.02;;;3.22;;
35326;SDS011;21436;52.348;20.928;2023-04-20T13:23:18;8.77;;;3.72;;
35326;SDS011;21436;52.348;20.928;2023-04-20T13:25:45;7.57;;;3.72;;
35326;SDS011;21436;52.348;20.928;2023-04-20T13:28:13;6.13;;;3.40;;
35326;SDS011;21436;52.348;20.928;2023-04-20T13:30:41;6.00;;;3.63;;
35326;SDS011;21436;52.348;20.928;2023-04-20T13:33:08;7.00;;;3.58;;
35326;SDS011;21436;52.348;20.928;2023-04-20T13:35:36;14.10;;;3.70;;
35326;SDS011;21436;52.348;20.928;2023-04-20T13:38:04;21.13;;;4.18;;
35326;SDS011;21436;52.348;20.928;2023-04-20T13:40:32;7.60;;;3.15;;
35326;SDS011;21436;52.348;20.928;2023-04-20T13:43:00;6.15;;;3.28;;
35326;SDS011;21436;52.348;20.928;2023-04-20T13:45:27;5.10;;;3.28;;
35326;SDS011;21436;52.348;20.928;2023-04-20T13:47:55;5.47;;;3.42;;
35326;SDS011;21436;52.348;20.928;2023-04-20T13:50:23;11.57;;;4.25;;
35326;SDS011;21436;52.348;20.928;2023-04-20T13:52:51;8.27;;;3.78;;
35326;SDS011;21436;52.348;20.928;2023-04-20T13:55:19;10.02;;;3.97;;
35326;SDS011;21436;52.348;20.928;2023-04-20T13:57:46;10.18;;;3.65;;
35326;SDS011;21436;52.348;20.928;2023-04-20T14:00:14;10.30;;;3.95;;
35326;SDS011;21436;52.348;20.928;2023-04-20T14:02:42;9.23;;;3.60;;
35326;SDS011;21436;52.348;20.928;2023-04-20T14:05:10;7.57;;;3.63;;
35326;SDS011;21436;52.348;20.928;2023-04-20T14:07:38;12.15;;;3.88;;
35326;SDS011;21436;52.348;20.928;2023-04-20T14:10:05;10.60;;;4.38;;
35326;SDS011;21436;52.348;20.928;2023-04-20T14:12:33;5.47;;;3.72;;
35326;SDS011;21436;52.348;20.928;2023-04-20T14:15:01;6.93;;;3.67;;
35326;SDS011;21436;52.348;20.928;2023-04-20T14:17:30;9.80;;;4.38;;
35326;SDS011;21436;52.348;20.928;2023-04-20T14:19:58;8.50;;;3.88;;
35326;SDS011;21436;52.348;20.928;2023-04-20T14:22:25;7.57;;;3.83;;
35326;SDS011;21436;52.348;20.928;2023-04-20T14:24:52;8.70;;;3.88;;
35326;SDS011;21436;52.348;20.928;2023-04-20T14:27:20;7.65;;;3.88;;
35326;SDS011;21436;52.348;20.928;2023-04-20T14:29:48;8.82;;;3.85;;
35326;SDS011;21436;52.348;20.928;2023-04-20T14:32:16;6.38;;;4.22;;
35326;SDS011;21436;52.348;20.928;2023-04-20T14:34:45;10.32;;;4.13;;
35326;SDS011;21436;52.348;20.928;2023-04-20T14:37:13;7.18;;;4.18;;
35326;SDS011;21436;52.348;20.928;2023-04-20T14:39:40;7.18;;;4.10;;
35326;SDS011;21436;52.348;20.928;2023-04-20T14:42:07;10.07;;;4.18;;